Latest Weather Observations for Parafield

IDS60801

Issued at 4:01 pm CST Monday 30 May 2016 (issued every 30 minutes, with the page automatically refreshed every 10 minutes)

About weather observations | Map of weather stations | Latest weather observations for SA | Other Formats
Station Details ID: 023013 Name: PARAFIELD AIRPORT Lat: -34.80 Lon: 138.63 Height: 9.5 m
Data from the previous 72 hours. | See also: Recent months at Parafield
Date/Time
CST
Temp
°C
App
Temp
°C
Dew
Point
Rel
Hum
%
Delta-T
°C
Wind Press
QNH
hPa
Press
MSL
hPa
Rain
since 9 am
mm
Dir
 
Spd
km/h
Gust
km/h
Spd
kts
Gust
kts
30/04:00pm 15.7 11.9 9.8 68 3.1 NE 20 26 11 14 1018.5 1018.5 0.4
30/03:30pm 16.2 12.4 9.8 66 3.3 NE 20 30 11 16 1018.4 1018.4 0.4
30/03:00pm 16.2 11.7 10.1 67 3.2 NE 24 28 13 15 1018.3 1018.3 0.4
30/02:30pm 16.7 12.2 10.1 65 3.5 NNE 24 35 13 19 1018.2 1018.2 0.4
30/02:00pm 17.8 13.9 10.9 64 3.7 NNE 22 30 12 16 1018.2 1018.2 0.4
30/01:30pm 16.8 12.0 10.4 66 3.4 NNE 26 33 14 18 1018.4 1018.4 0.4
30/01:00pm 16.1 12.0 10.0 67 3.2 NNE 22 32 12 17 1018.6 1018.6 0.4
30/12:30pm 15.0 10.2 10.2 73 2.5 NE 26 32 14 17 1018.9 1018.9 0.4
30/12:00pm 14.3 10.2 10.1 76 2.2 NE 22 30 12 16 1019.2 1019.2 0.4
30/11:30am 14.8 11.0 9.2 69 2.9 NNE 19 26 10 14 1019.5 1019.5 0.2
30/11:00am 14.0 10.2 9.8 76 2.2 NE 20 26 11 14 1019.7 1019.7 0.2
30/10:30am 13.8 10.1 9.3 74 2.3 NE 19 28 10 15 1019.9 1019.9 0.2
30/10:00am 13.8 8.6 8.8 72 2.5 NE 26 37 14 20 1019.9 1019.9 0.0
30/09:30am 14.4 9.8 8.1 66 3.1 NE 22 30 12 16 1019.7 1019.7 0.0
30/09:00am 13.6 9.5 8.7 72 2.5 NE 20 28 11 15 1019.6 1019.6 0.4
30/08:30am 13.0 9.0 8.9 76 2.1 NE 20 26 11 14 1019.3 1019.3 0.4
30/08:00am 12.1 8.6 8.8 80 1.6 NE 17 20 9 11 1019.3 1019.3 0.4
30/07:30am 12.2 8.3 8.5 78 1.8 NE 19 26 10 14 1019.2 1019.2 0.2
30/07:00am 13.3 9.5 7.5 68 2.8 NNE 17 20 9 11 1018.8 1018.8 0.0
30/06:30am 13.0 8.7 7.0 67 2.9 NE 19 24 10 13 1018.3 1018.3 0.0
30/06:00am 12.1 8.2 7.2 72 2.4 NE 17 20 9 11 1018.1 1018.1 0.0
30/05:30am 10.7 6.7 6.5 75 2.0 NE 17 19 9 10 1017.8 1017.8 0.0
30/05:00am 11.7 7.8 7.0 73 2.2 NE 17 20 9 11 1017.8 1017.8 0.0
30/04:30am 12.1 8.2 7.0 71 2.4 NE 17 22 9 12 1017.8 1017.8 0.0
30/04:00am 11.5 7.5 6.8 73 2.2 NE 17 19 9 10 1017.7 1017.7 0.0
30/03:30am 11.8 7.8 6.7 71 2.4 NE 17 20 9 11 1017.9 1017.9 0.0
30/03:00am 12.2 8.3 6.9 70 2.5 NE 17 19 9 10 1017.9 1017.9 0.0
30/02:30am 13.1 8.7 6.7 65 3.1 NE 19 26 10 14 1017.8 1017.8 0.0
30/02:00am 13.4 9.0 6.7 64 3.2 NE 19 24 10 13 1017.8 1017.8 0.0
30/01:30am 13.3 8.7 6.6 64 3.2 NE 20 26 11 14 1017.6 1017.6 0.0
30/01:00am 12.9 8.3 6.7 66 3.0 NE 20 24 11 13 1018.0 1018.0 0.0
30/12:30am 12.8 8.4 6.6 66 3.0 NE 19 24 10 13 1018.4 1018.4 0.0
30/12:00am 13.0 8.4 6.4 64 3.1 NE 20 28 11 15 1018.4 1018.4 0.0
 
Date/Time
CST
Temp
°C
App
Temp
°C
Dew
Point
Rel
Hum
%
Delta-T
°C
Wind Press
QNH
hPa
Press
MSL
hPa
Rain
since 9 am
mm
Dir
 
Spd
km/h
Gust
km/h
Spd
kts
Gust
kts
29/11:30pm 13.0 8.3 6.1 63 3.3 NE 20 26 11 14 1018.4 1018.4 0.0
29/11:00pm 12.5 8.0 6.3 66 2.9 NE 19 28 10 15 1018.5 1018.5 0.0
29/10:30pm 12.7 8.1 6.3 65 3.0 NE 20 26 11 14 1018.6 1018.6 0.0
29/10:00pm 12.5 8.1 6.5 67 2.9 NE 19 24 10 13 1018.5 1018.5 0.0
29/09:30pm 12.7 8.3 6.7 67 2.9 NE 19 24 10 13 1018.7 1018.7 0.0
29/09:00pm 12.8 8.3 6.8 67 2.9 NE 20 26 11 14 1018.7 1018.7 0.0
29/08:30pm 12.3 8.0 7.0 70 2.5 NE 19 24 10 13 1018.7 1018.7 0.0
29/08:00pm 12.2 8.3 7.3 72 2.4 NE 17 20 9 11 1018.8 1018.8 0.0
29/07:30pm 12.4 8.3 7.7 73 2.3 NE 19 22 10 12 1018.7 1018.7 0.0
29/07:00pm 12.2 8.1 7.9 75 2.1 NE 19 24 10 13 1018.5 1018.5 0.0
29/06:30pm 12.1 8.7 7.8 75 2.1 NE 15 19 8 10 1018.3 1018.3 0.0
29/06:00pm 12.0 8.6 7.7 75 2.1 NE 15 17 8 9 1017.8 1017.8 0.0
29/05:30pm 13.0 9.7 7.9 71 2.5 NE 15 19 8 10 1017.6 1017.6 0.0
29/05:00pm 13.8 9.7 8.0 68 2.9 NE 19 24 10 13 1017.3 1017.3 0.0
29/04:30pm 14.7 10.2 8.4 66 3.2 ENE 22 28 12 15 1017.3 1017.3 0.0
29/04:00pm 15.6 11.5 8.8 64 3.5 NE 20 24 11 13 1017.3 1017.3 0.0
29/03:30pm 15.4 12.1 8.2 62 3.6 NNE 15 19 8 10 1017.4 1017.4 0.0
29/03:00pm 15.2 11.9 8.2 63 3.5 NE 15 20 8 11 1017.4 1017.4 0.0
29/02:30pm 15.2 10.9 7.7 61 3.7 NE 20 28 11 15 1017.4 1017.4 0.0
29/02:00pm 15.8 11.8 8.1 60 3.9 NNE 19 26 10 14 1017.7 1017.7 0.0
29/01:30pm 15.9 11.6 7.7 58 4.1 NNE 20 28 11 15 1017.8 1017.8 0.0
29/01:00pm 15.8 11.3 7.1 56 4.3 NNE 20 30 11 16 1018.2 1018.2 0.0
29/12:30pm 15.5 10.4 7.5 59 4.0 NNE 24 30 13 16 1018.6 1018.6 0.0
29/12:00pm 15.2 10.9 7.0 58 4.0 NNE 19 24 10 13 1018.9 1018.9 0.0
29/11:30am 14.8 10.2 6.4 57 4.0 NNE 20 26 11 14 1019.2 1019.2 0.0
29/11:00am 15.1 9.8 6.9 58 4.0 NNE 24 30 13 16 1019.3 1019.3 0.0
29/10:30am 15.0 10.0 6.3 56 4.2 NNE 22 30 12 16 1019.6 1019.6 0.0
29/10:00am 14.8 9.3 5.9 55 4.3 NNE 24 33 13 18 1019.7 1019.7 0.0
29/09:30am 13.8 9.0 5.7 58 3.8 NE 20 28 11 15 1019.5 1019.5 0.0
29/09:00am 12.9 8.2 5.1 59 3.6 NE 19 24 10 13 1019.5 1019.5 0.0
29/08:30am 11.9 7.1 4.9 62 3.2 NE 19 22 10 12 1019.4 1019.4 0.0
29/08:00am 10.8 6.0 4.5 65 2.8 NE 19 24 10 13 1019.2 1019.2 0.0
29/07:30am 10.1 6.1 4.7 69 2.4 NE 15 19 8 10 1019.1 1019.1 0.0
29/07:00am 9.7 5.3 4.9 72 2.2 NE 17 20 9 11 1018.9 1018.9 0.0
29/06:30am 7.2 3.9 4.5 83 1.2 NE 11 13 6 7 1018.8 1018.8 0.0
29/06:00am 7.7 4.9 5.2 84 1.1 E 9 9 5 5 1018.8 1018.8 0.0
29/05:30am 7.5 5.1 5.1 85 1.1 ENE 7 9 4 5 1018.7 1018.7 0.0
29/05:00am 8.4 6.0 5.2 80 1.4 NE 7 9 4 5 1018.6 1018.6 0.0
29/04:30am 8.1 5.7 5.4 83 1.2 NNW 7 13 4 7 1018.6 1018.6 0.0
29/04:00am 8.2 5.8 4.4 77 1.7 W 6 7 3 4 1018.2 1018.2 0.0
29/03:30am 7.7 5.3 5.2 84 1.1 WNW 7 7 4 4 1018.1 1018.1 0.0
29/03:00am 9.8 7.2 4.4 69 2.4 ENE 7 11 4 6 1018.0 1018.0 0.0
29/02:30am 10.2 8.8 5.6 73 2.1 NE 2 7 1 4 1018.2 1018.2 0.0
29/02:00am 10.7 8.7 6.3 74 2.1 W 6 7 3 4 1018.5 1018.5 0.0
29/01:30am 11.1 9.1 6.3 72 2.2 N 6 7 3 4 1018.3 1018.3 0.0
29/01:00am 11.3 7.6 6.2 71 2.4 ENE 15 19 8 10 1018.2 1018.2 0.0
29/12:30am 11.7 9.8 6.8 72 2.3 NNE 6 7 3 4 1018.4 1018.4 0.0
29/12:00am 12.3 10.4 6.6 68 2.7 NE 6 9 3 5 1018.5 1018.5 0.0
 
Date/Time
CST
Temp
°C
App
Temp
°C
Dew
Point
Rel
Hum
%
Delta-T
°C
Wind Press
QNH
hPa
Press
MSL
hPa
Rain
since 9 am
mm
Dir
 
Spd
km/h
Gust
km/h
Spd
kts
Gust
kts
28/11:30pm 12.3 9.8 6.4 67 2.8 E 9 13 5 7 1018.8 1018.8 0.0
28/11:00pm 12.4 10.4 6.9 69 2.6 NNE 7 11 4 6 1019.0 1019.0 0.0
28/10:30pm 12.5 10.1 7.0 69 2.6 ENE 9 11 5 6 1019.0 1019.0 0.0
28/10:00pm 12.5 9.8 7.2 70 2.6 ENE 11 13 6 7 1018.8 1018.8 0.0
28/09:30pm 12.5 10.5 7.2 70 2.6 ENE 7 9 4 5 1018.8 1018.8 0.0
28/09:00pm 12.6 10.7 7.5 71 2.5 NE 7 9 4 5 1018.9 1018.9 0.0
28/08:30pm 13.0 10.9 6.8 66 3.0 ENE 7 9 4 5 1019.0 1019.0 0.0
28/08:00pm 13.0 12.3 7.0 67 2.9 CALM 0 0 0 0 1018.9 1018.9 0.0
28/07:30pm 12.9 11.6 7.6 70 2.6 ENE 4 6 2 3 1018.6 1018.6 0.0
28/07:00pm 12.9 11.1 7.8 71 2.5 E 7 9 4 5 1018.4 1018.4 0.0
28/06:30pm 12.9 10.3 7.8 71 2.5 ESE 11 13 6 7 1018.1 1018.1 0.0
28/06:00pm 13.7 11.6 8.1 69 2.8 ESE 9 13 5 7 1017.9 1017.9 0.0
28/05:30pm 14.1 10.4 7.9 66 3.1 SE 17 20 9 11 1017.5 1017.5 0.0
28/05:00pm 14.5 11.8 9.1 70 2.8 WSW 13 17 7 9 1017.3 1017.3 0.0
28/04:30pm 15.0 11.9 8.7 66 3.2 SW 15 22 8 12 1017.1 1017.1 0.0
28/04:00pm 16.2 14.3 7.4 56 4.4 ESE 7 13 4 7 1016.8 1016.8 0.0
28/03:30pm 16.4 14.1 8.9 61 3.8 WSW 11 17 6 9 1016.5 1016.5 0.0
28/03:00pm 17.0 14.6 7.1 52 4.9 WSW 9 17 5 9 1016.3 1016.3 0.0
28/02:30pm 15.4 12.4 7.9 61 3.7 S 13 17 7 9 1016.3 1016.3 0.0
28/02:00pm 16.1 14.2 6.8 54 4.6 SSE 6 15 3 8 1016.2 1016.2 0.0
28/01:30pm 16.5 13.6 6.3 51 5.0 SE 11 17 6 9 1016.1 1016.1 0.0
28/01:00pm 16.5 13.7 6.9 53 4.7 SW 11 17 6 9 1016.3 1016.3 0.0
28/12:30pm 16.7 13.4 6.5 51 5.0 SSE 13 19 7 10 1016.4 1016.4 0.0
28/12:00pm 16.0 12.8 7.0 55 4.4 S 13 20 7 11 1016.6 1016.6 0.0
28/11:30am 16.0 13.3 7.2 56 4.4 ESE 11 19 6 10 1017.1 1017.1 0.0
28/11:00am 15.6 12.8 7.1 57 4.2 ESE 11 17 6 9 1017.0 1017.0 0.0
28/10:30am 14.8 11.5 6.4 57 4.1 SE 13 22 7 12 1017.1 1017.1 0.0
28/10:00am 14.6 11.6 7.6 63 3.5 SSE 13 19 7 10 1016.7 1016.7 0.0
28/09:30am 13.8 9.6 5.9 59 3.7 SSE 17 26 9 14 1016.4 1016.4 0.0
28/09:00am 12.9 11.1 8.0 72 2.4 SSW 7 13 4 7 1016.0 1016.0 12.6
28/08:30am 11.0 9.7 9.8 92 0.6 SSE 7 11 4 6 1015.5 1015.5 12.6
28/08:00am 9.2 8.1 8.6 96 0.3 SSW 4 7 2 4 1015.0 1015.0 12.6
28/07:30am 7.6 5.2 6.9 95 0.3 SW 9 11 5 6 1014.4 1014.4 12.6
28/07:05am 9.1 7.6 8.5 96 0.3 NNW 6 9 3 5 1013.7 1013.7 12.6
28/07:00am 8.0 7.0 7.2 95 0.4 NNE 2 9 1 5 1013.5 1013.5 12.6
28/06:30am 8.3 6.6 7.5 95 0.4 S 6 7 3 4 1012.8 1012.8 12.6
28/06:21am 8.8 7.0 8.0 95 0.4 SSE 7 7 4 4 1012.7 1012.7 12.6
28/06:00am 9.5 7.9 8.7 95 0.4 S 7 11 4 6 1012.1 1012.1 12.6
28/05:30am 9.3 7.6 8.5 95 0.4 NE 7 11 4 6 1011.7 1011.7 12.6
28/05:00am 10.3 9.1 9.5 95 0.4 N 6 7 3 4 1011.4 1011.4 12.6
28/04:30am 10.2 9.0 9.4 95 0.4 NE 6 7 3 4 1011.1 1011.1 12.4
28/04:00am 10.0 8.5 9.1 94 0.4 E 7 9 4 5 1011.0 1011.0 12.2
28/03:30am 9.2 8.8 8.1 93 0.5 CALM 0 0 0 0 1010.6 1010.6 12.0
28/03:00am 9.6 8.1 8.4 92 0.6 E 6 7 3 4 1010.6 1010.6 12.0
28/02:30am 10.1 8.4 8.4 89 0.8 WSW 7 9 4 5 1010.4 1010.4 12.0
28/02:00am 10.4 8.4 8.5 88 0.9 W 9 11 5 6 1010.3 1010.3 12.0
28/01:30am 10.8 8.0 8.6 86 1.1 W 13 17 7 9 1010.1 1010.1 12.0
28/01:00am 11.4 7.9 8.8 84 1.3 WSW 17 20 9 11 1010.1 1010.1 12.0
28/12:30am 11.7 8.2 8.6 81 1.5 W 17 26 9 14 1010.2 1010.2 12.0
28/12:00am 11.8 8.3 8.6 81 1.6 WSW 17 26 9 14 1010.4 1010.4 12.0
 
Date/Time
CST
Temp
°C
App
Temp
°C
Dew
Point
Rel
Hum
%
Delta-T
°C
Wind Press
QNH
hPa
Press
MSL
hPa
Rain
since 9 am
mm
Dir
 
Spd
km/h
Gust
km/h
Spd
kts
Gust
kts
27/11:30pm 11.8 8.4 9.0 83 1.4 WSW 17 28 9 15 1010.1 1010.1 12.0
27/11:25pm 11.2 9.7 9.3 88 1.0 WSW 7 24 4 13 1010.1 1010.1 12.0
27/11:11pm 10.0 8.4 8.6 91 0.7 N 7 13 4 7 1010.2 1010.2 12.0
27/11:00pm 9.7 7.6 8.3 91 0.7 NNE 9 11 5 6 1010.1 1010.1 11.4
27/10:30pm 9.1 8.1 7.4 89 0.8 SE 2 7 1 4 1010.1 1010.1 11.4
27/10:00pm 9.4 7.0 7.2 86 1.0 S 9 11 5 6 1010.1 1010.1 11.4
27/09:30pm 10.5 6.7 7.7 83 1.3 SSW 17 22 9 12 1010.1 1010.1 11.4
27/09:00pm 10.9 5.8 7.8 81 1.5 S 24 35 13 19 1009.7 1009.7 11.4
27/08:30pm 11.4 6.4 8.1 80 1.6 SSW 24 35 13 19 1009.7 1009.7 11.4
27/08:00pm 11.9 6.5 7.8 76 2.0 SSW 26 43 14 23 1009.2 1009.2 11.2
27/07:41pm 12.2 5.6 7.7 74 2.2 SSW 32 52 17 28 1008.9 1008.9 11.2
27/07:30pm 12.3 5.5 7.8 74 2.2 SW 33 48 18 26 1008.8 1008.8 11.2
27/07:24pm 12.6 6.4 7.7 72 2.4 SW 30 48 16 26 1008.6 1008.6 11.2
27/07:00pm 11.7 5.7 7.0 73 2.2 SW 28 43 15 23 1008.3 1008.3 11.2
27/06:42pm 11.5 5.6 7.6 77 1.9 SW 28 43 15 23 1007.9 1007.9 11.2
27/06:30pm 11.4 5.0 9.3 87 1.1 WSW 33 46 18 25 1007.8 1007.8 11.2
27/06:25pm 11.4 5.0 9.3 87 1.1 WSW 33 46 18 25 1007.7 1007.7 11.0
27/06:23pm 11.4 5.4 8.8 84 1.3 W 30 46 16 25 1007.7 1007.7 10.4
27/06:22pm 11.4 5.8 8.8 84 1.3 W 28 46 15 25 1007.8 1007.8 10.2
27/06:00pm 12.1 7.0 7.6 74 2.2 W 24 33 13 18 1007.7 1007.7 9.2
27/05:30pm 12.2 6.8 7.9 75 2.1 W 26 35 14 19 1007.4 1007.4 9.2
27/05:00pm 11.4 7.3 7.9 79 1.7 WNW 19 26 10 14 1007.5 1007.5 9.2
27/04:30pm 11.4 6.4 8.1 80 1.6 W 24 39 13 21 1007.2 1007.2 9.2

Other Formats:

Comma delimited format used in spreadsheet applications
http://www.bom.gov.au/fwo/IDS60801/IDS60801.95677.axf

JavaScript Object Notation format (JSON) in row-major order
http://www.bom.gov.au/fwo/IDS60801/IDS60801.95677.json